Monday, June 18, 2018, 1:52 AM GMT
Back to Local

CWRN, Hart Island Meteorological Aeronautical Presentation System

Location: , , Canada Lat: 45.35
Local Time: 1:52 AM GMT ( 1:52 GMT) Lon: -60.983
Time Zone: GMT Elev: 13 ft

Show me the last for .
Show Coded

Time T Td Feel RH Dir Speed Gust Alt SLP Vis Weather Sky Remarks
2018-06-18 01:00 43 40 40 88 160° 5 - - 30.23 0 None
2018-06-18 00:00 44 40 40 86 130° 6 - - 30.22 0 None
2018-06-17 23:00 45 40 39 83 130° 12 - - 30.21 0 None
2018-06-17 22:00 47 41 41 78 130° 14 - - 30.19 0 None
2018-06-17 21:00 48 41 42 75 120° 15 - - 30.20 0 None
2018-06-17 20:00 50 41 - 71 120° 10 - - 30.21 0 None
2018-06-17 19:00 50 42 - 72 120° 12 - - 30.19 0 Peak wind: 20 mph (18 kts) from 110° at 36 min
2018-06-17 18:00 50 42 45 75 120° 14 - - 30.18 0 None
2018-06-17 17:00 50 43 45 76 90° 14 - - 30.17 0 None
2018-06-17 16:00 49 43 44 78 110° 14 - - 30.16 0 None
2018-06-17 15:00 53 44 - 71 350° 15 - - 30.15 0 None
2018-06-17 14:00 52 44 - 72 10° 6 - - 30.14 0 None
2018-06-17 13:00 49 43 46 79 20° 8 - - 30.12 0 None
2018-06-17 12:00 50 42 44 74 360° 17 - - 30.12 0 Peak wind: 21 mph (19 kts) from 0° at 45 min
2018-06-17 11:00 48 41 42 74 330° 16 - - 30.08 0 Peak wind: 19 mph (17 kts) from 310° at 38 min
2018-06-17 10:00 47 41 41 79 300° 14 - - 30.06 0 Peak wind: 21 mph (19 kts) from 300° at 04 min
2018-06-17 09:00 46 41 38 82 300° 20 - - 30.02 0 Peak wind: 25 mph (22 kts) from 300° at 21 min
2018-06-17 08:00 46 41 39 84 310° 17 - - 30.00 0 Peak wind: 21 mph (19 kts) from 310° at 39 min
2018-06-17 07:00 46 43 39 86 310° 17 - - 29.99 0 Peak wind: 19 mph (17 kts) from 300° at 52 min
2018-06-17 06:00 46 44 40 93 300° 12 - - 29.98 0 None
2018-06-17 05:00 46 44 41 93 310° 10 - - 29.97 0 None
2018-06-17 04:00 47 44 42 91 300° 12 - - 29.95 0 None
2018-06-17 03:00 48 46 43 92 290° 10 - - 29.94 0 None
2018-06-17 02:00 46 46 40 100 280° 10 - - 29.92 0 None

Support USWX by starting your Amazon purchase here.